ID Time Temp Humidity Light PM2.5 PM10 Voltage Extra Firmware Position Fcnt TTN version Gateways Distance RSSI LSNR Radiosettings
2026-05-07 18:39:09 15.1875°C 80.875% 3.28V v5 51.5868 / 4.99933 4971 ttn.v3 0.014km -71 12.5 867.1MHz, SF9BW125, 4/5CR
1.267km -111 -0.75 867.1MHz, SF9BW125, 4/5CR
2026-05-07 18:23:40 15.3125°C 70.8125% 3.28V v5 51.5868 / 4.99933 4970 ttn.v3 0.014km -55 12.5 868.1MHz, SF9BW125, 4/5CR
2026-05-07 18:08:11 15.3125°C 78.5625% 3.28V v5 51.5868 / 4.99933 4969 ttn.v3 0.014km -70 12.5 867.9MHz, SF9BW125, 4/5CR
1.267km -115 -1.75 867.9MHz, SF9BW125, 4/5CR
- -124 -10.5 867.9MHz, SF9BW125, 4/5CR
2026-05-07 17:52:42 15.3125°C 76.5625% 3.28V v5 51.5868 / 4.99933 4968 ttn.v3 0.014km -55 9.8 868.5MHz, SF9BW125, 4/5CR
1.267km -113 -7 868.5MHz, SF9BW125, 4/5CR
2026-05-07 17:37:13 15.25°C 70.9375% 3.28V v5 51.5868 / 4.99933 4967 ttn.v3 0.014km -70 13.5 867.7MHz, SF9BW125, 4/5CR
1.267km -113 0.75 867.7MHz, SF9BW125, 4/5CR
2026-05-07 17:21:44 15.375°C 88.4375% 3.28V v5 51.5868 / 4.99933 4966 ttn.v3 0.014km -55 13.2 868.3MHz, SF9BW125, 4/5CR
1.267km -109 -7 868.3MHz, SF9BW125, 4/5CR
2026-05-07 17:06:15 15.3125°C 91.5% 3.28V v5 51.5868 / 4.99933 4965 ttn.v3 0.014km -70 11 867.5MHz, SF9BW125, 4/5CR
1.267km -110 -6 867.5MHz, SF9BW125, 4/5CR
2026-05-07 16:50:46 15.1875°C 69.9375% 3.28V v5 51.5868 / 4.99933 4964 ttn.v3 0.014km -55 12.5 868.1MHz, SF9BW125, 4/5CR
1.267km -109 -1 868.1MHz, SF9BW125, 4/5CR
2026-05-07 16:35:18 15.25°C 82.1875% 3.28V v5 51.5868 / 4.99933 4963 ttn.v3 0.014km -70 12.8 867.3MHz, SF9BW125, 4/5CR
1.267km -113 1.5 867.3MHz, SF9BW125, 4/5CR
- -116 -6 867.3MHz, SF9BW125, 4/5CR
2026-05-07 16:19:49 15.25°C 80.4375% 3.28V v5 51.5868 / 4.99933 4962 ttn.v3 0.014km -55 9 868.5MHz, SF9BW125, 4/5CR
1.267km -103 -12 868.5MHz, SF9BW125, 4/5CR
2026-05-07 16:04:20 15.5°C 70.5625% 3.28V v5 51.5868 / 4.99933 4961 ttn.v3 0.014km -71 12.5 867.1MHz, SF9BW125, 4/5CR
1.267km -116 -1.75 867.1MHz, SF9BW125, 4/5CR
2026-05-07 15:48:51 15.4375°C 85.125% 3.28V v5 51.5868 / 4.99933 4960 ttn.v3 0.014km -55 13 868.3MHz, SF9BW125, 4/5CR
1.267km -110 -1.75 868.3MHz, SF9BW125, 4/5CR
2026-05-07 15:33:22 15.375°C 91.8125% 3.28V v5 51.5868 / 4.99933 4959 ttn.v3 0.014km -70 12.5 867.9MHz, SF9BW125, 4/5CR
1.267km -116 -2.25 867.9MHz, SF9BW125, 4/5CR
2026-05-07 15:17:53 15.6875°C 87% 3.28V v5 51.5868 / 4.99933 4958 ttn.v3 0.014km -55 12.2 868.1MHz, SF9BW125, 4/5CR
1.267km -116 -8.5 868.1MHz, SF9BW125, 4/5CR
2026-05-07 15:02:24 15.625°C 93.375% 3.28V v5 51.5868 / 4.99933 4957 ttn.v3 0.014km -70 13 867.7MHz, SF9BW125, 4/5CR
1.267km -114 -0.25 867.7MHz, SF9BW125, 4/5CR
2026-05-07 14:46:55 15.6875°C 93.5625% 3.28V v5 51.5868 / 4.99933 4956 ttn.v3 0.014km -55 9.5 868.5MHz, SF9BW125, 4/5CR
2026-05-07 14:31:26 15.5625°C 88.125% 3.28V v5 51.5868 / 4.99933 4955 ttn.v3 0.014km -71 10.2 867.5MHz, SF9BW125, 4/5CR
1.267km -111 -9.25 867.5MHz, SF9BW125, 4/5CR
2026-05-07 14:15:57 15.25°C 88.5625% 3.28V v5 51.5868 / 4.99933 4954 ttn.v3 0.014km -55 12.8 868.3MHz, SF9BW125, 4/5CR
1.267km -107 -6.75 868.3MHz, SF9BW125, 4/5CR
2026-05-07 14:00:28 15°C 91.9375% 3.28V v5 51.5868 / 4.99933 4953 ttn.v3 0.014km -70 12.8 867.3MHz, SF9BW125, 4/5CR
1.267km -109 0.25 867.3MHz, SF9BW125, 4/5CR
2026-05-07 13:44:59 15.0625°C 77.25% 3.28V v5 51.5868 / 4.99933 4952 ttn.v3 0.014km -56 12.2 868.1MHz, SF9BW125, 4/5CR
1.267km -119 -7.5 868.1MHz, SF9BW125, 4/5CR
2026-05-07 13:29:30 15.0625°C 83.625% 3.28V v5 51.5868 / 4.99933 4951 ttn.v3 0.014km -71 12 867.1MHz, SF9BW125, 4/5CR
1.267km -114 -2.25 867.1MHz, SF9BW125, 4/5CR
- -118 -8.5 867.1MHz, SF9BW125, 4/5CR
2026-05-07 13:14:01 15°C 63.5% 3.28V v5 51.5868 / 4.99933 4950 ttn.v3 0.014km -55 10.8 868.5MHz, SF9BW125, 4/5CR
1.267km -115 -5.75 868.5MHz, SF9BW125, 4/5CR
2026-05-07 12:58:32 15.125°C 58.4375% 3.28V v5 51.5868 / 4.99933 4949 ttn.v3 0.014km -70 12.8 867.9MHz, SF9BW125, 4/5CR
1.267km -116 -7.25 867.9MHz, SF9BW125, 4/5CR
2026-05-07 12:43:03 15.625°C 56.8125% 3.28V v5 51.5868 / 4.99933 4948 ttn.v3 0.014km -55 12.5 868.3MHz, SF9BW125, 4/5CR
1.267km -102 -10 868.3MHz, SF9BW125, 4/5CR
2026-05-07 12:27:35 14.8125°C 53.5625% 3.28V v5 51.5868 / 4.99933 4947 ttn.v3 0.014km -70 13 867.7MHz, SF9BW125, 4/5CR
1.267km -113 -0.5 867.7MHz, SF9BW125, 4/5CR
2026-05-07 12:12:06 14.1875°C 42.75% 3.28V v5 51.5868 / 4.99933 4946 ttn.v3 0.014km -56 12 868.1MHz, SF9BW125, 4/5CR
2026-05-07 11:56:37 14.125°C 21.625% 3.28V v5 51.5868 / 4.99933 4945 ttn.v3 0.014km -71 10.8 867.5MHz, SF9BW125, 4/5CR
2026-05-07 11:41:09 14.5°C 35.25% 3.28V v5 51.5868 / 4.99933 4944 ttn.v3 0.014km -56 10.8 868.5MHz, SF9BW125, 4/5CR
1.267km -110 -13 868.5MHz, SF9BW125, 4/5CR
2026-05-07 11:25:40 14.375°C 28.3125% 3.28V v5 51.5868 / 4.99933 4943 ttn.v3 0.014km -71 12.5 867.3MHz, SF9BW125, 4/5CR
1.267km -111 -3.25 867.3MHz, SF9BW125, 4/5CR
- -120 -8.75 867.3MHz, SF9BW125, 4/5CR
2026-05-07 11:10:11 14°C 0.125% 3.28V v5 51.5868 / 4.99933 4942 ttn.v3 0.014km -55 12 868.3MHz, SF9BW125, 4/5CR
2026-05-07 10:54:43 13.625°C 4.75% 3.28V v5 51.5868 / 4.99933 4941 ttn.v3 0.014km -72 11.8 867.1MHz, SF9BW125, 4/5CR
1.267km -111 1.5 867.1MHz, SF9BW125, 4/5CR
- -120 -11.75 867.1MHz, SF9BW125, 4/5CR
2026-05-07 10:39:15 13.3125°C -1.125% 3.28V v5 51.5868 / 4.99933 4940 ttn.v3 0.014km -56 11.8 868.1MHz, SF9BW125, 4/5CR
1.267km -116 -7.5 868.1MHz, SF9BW125, 4/5CR
2026-05-07 10:23:46 12.9375°C 103.688% 3.28V v5 51.5868 / 4.99933 4939 ttn.v3 0.014km -71 12.2 867.9MHz, SF9BW125, 4/5CR
1.267km -114 -4.25 867.9MHz, SF9BW125, 4/5CR
- -121 -10.25 867.9MHz, SF9BW125, 4/5CR
2026-05-07 10:08:18 12.625°C 93% 3.28V v5 51.5868 / 4.99933 4938 ttn.v3 0.014km -56 10.2 868.5MHz, SF9BW125, 4/5CR
2026-05-07 09:52:50 12.25°C 96.25% 3.28V v5 51.5868 / 4.99933 4937 ttn.v3 0.014km -71 12.5 867.7MHz, SF9BW125, 4/5CR
2026-05-07 09:37:22 11.875°C 95.3125% 3.28V v5 51.5868 / 4.99933 4936 ttn.v3 0.014km -56 12.2 868.3MHz, SF9BW125, 4/5CR
1.267km -109 -5.75 868.3MHz, SF9BW125, 4/5CR
2026-05-07 09:21:54 11.125°C 6.375% 3.28V v5 51.5868 / 4.99933 4935 ttn.v3 0.014km -71 9.8 867.5MHz, SF9BW125, 4/5CR
2026-05-07 09:06:26 10.6875°C 89.4375% 3.28V v5 51.5868 / 4.99933 4934 ttn.v3 0.014km -57 14.8 868.1MHz, SF9BW125, 4/5CR
2026-05-07 08:50:58 10.25°C 31.75% 3.28V v5 51.5868 / 4.99933 4933 ttn.v3 0.014km -71 12 867.3MHz, SF9BW125, 4/5CR
1.267km -111 -5.75 867.3MHz, SF9BW125, 4/5CR
2026-05-07 08:35:31 9.5°C -1.625% 3.28V v5 51.5868 / 4.99933 4932 ttn.v3 0.014km -56 10.5 868.5MHz, SF9BW125, 4/5CR
1.267km -107 -12 868.5MHz, SF9BW125, 4/5CR
2026-05-07 08:20:03 9.3125°C 104.125% 3.28V v5 51.5868 / 4.99933 4931 ttn.v3 0.014km -72 11.8 867.1MHz, SF9BW125, 4/5CR
1.267km -115 -4.5 867.1MHz, SF9BW125, 4/5CR
2026-05-07 08:04:36 9.125°C 90.4375% 3.28V v5 51.5868 / 4.99933 4930 ttn.v3 0.014km -56 12.5 868.3MHz, SF9BW125, 4/5CR
1.267km -113 -10.75 868.3MHz, SF9BW125, 4/5CR
2026-05-07 07:49:08 8.9375°C 70.3125% 3.28V v5 51.5868 / 4.99933 4929 ttn.v3 0.014km -71 12 867.9MHz, SF9BW125, 4/5CR
2026-05-07 07:33:41 8.75°C 58.5625% 3.28V v5 51.5868 / 4.99933 4928 ttn.v3 0.014km -57 13 868.1MHz, SF9BW125, 4/5CR
1.267km -114 -8.75 868.1MHz, SF9BW125, 4/5CR
2026-05-07 07:18:13 8.5625°C 58.0625% 3.28V v5 51.5868 / 4.99933 4927 ttn.v3 0.014km -71 12 867.7MHz, SF9BW125, 4/5CR
2026-05-07 07:02:46 8.5°C 55.25% 3.28V v5 51.5868 / 4.99933 4926 ttn.v3 0.014km -56 10.5 868.5MHz, SF9BW125, 4/5CR
2026-05-07 06:47:18 8.4375°C 54.5625% 3.28V v5 51.5868 / 4.99933 4925 ttn.v3 0.014km -72 9.5 867.5MHz, SF9BW125, 4/5CR
2026-05-07 06:16:24 8.375°C 51.4375% 3.28V v5 51.5868 / 4.99933 4923 ttn.v3 0.014km -71 11.8 867.3MHz, SF9BW125, 4/5CR
1.267km -111 -0.75 867.3MHz, SF9BW125, 4/5CR
2026-05-07 06:00:56 8.375°C 54.4375% 3.28V v5 51.5868 / 4.99933 4922 ttn.v3 0.014km -56 13.2 868.1MHz, SF9BW125, 4/5CR
1.267km -116 -8 868.1MHz, SF9BW125, 4/5CR
2026-05-07 05:45:29 8.5°C 53.9375% 3.28V v5 51.5868 / 4.99933 4921 ttn.v3 0.014km -72 12.5 867.1MHz, SF9BW125, 4/5CR
1.267km -113 -1.25 867.1MHz, SF9BW125, 4/5CR
2026-05-07 05:30:02 8.5625°C 52.5625% 3.28V v5 51.5868 / 4.99933 4920 ttn.v3 0.014km -56 10.5 868.5MHz, SF9BW125, 4/5CR
2026-05-07 05:14:34 8.625°C 49.25% 3.28V v5 51.5868 / 4.99933 4919 ttn.v3 0.014km -71 12.2 867.9MHz, SF9BW125, 4/5CR
1.267km -115 -5 867.9MHz, SF9BW125, 4/5CR
2026-05-07 04:59:07 8.625°C 43.25% 3.28V v5 51.5868 / 4.99933 4918 ttn.v3 0.014km -56 12 868.3MHz, SF9BW125, 4/5CR
1.267km -105 -13.5 868.3MHz, SF9BW125, 4/5CR
2026-05-07 04:43:39 8.625°C 59.5% 3.28V v5 51.5868 / 4.99933 4917 ttn.v3 0.014km -71 11.8 867.7MHz, SF9BW125, 4/5CR
1.267km -114 -5.5 867.7MHz, SF9BW125, 4/5CR
- -118 -12.75 867.7MHz, SF9BW125, 4/5CR
2026-05-07 04:28:12 8.6875°C 55.9375% 3.28V v5 51.5868 / 4.99933 4916 ttn.v3 0.014km -57 12.8 868.1MHz, SF9BW125, 4/5CR
1.267km -111 -8.75 868.1MHz, SF9BW125, 4/5CR
2026-05-07 04:12:45 8.6875°C 55.8125% 3.28V v5 51.5868 / 4.99933 4915 ttn.v3 0.014km -72 10 867.5MHz, SF9BW125, 4/5CR
1.267km -111 -0.75 867.5MHz, SF9BW125, 4/5CR
2026-05-07 03:57:17 8.8125°C 56.5% 3.28V v5 51.5868 / 4.99933 4914 ttn.v3 0.014km -56 10 868.5MHz, SF9BW125, 4/5CR
1.267km -113 -6.75 868.5MHz, SF9BW125, 4/5CR
2026-05-07 03:41:50 8.8125°C 54.0625% 3.28V v5 51.5868 / 4.99933 4913 ttn.v3 0.014km -72 11.5 867.3MHz, SF9BW125, 4/5CR
2026-05-07 03:26:22 8.8125°C 55.625% 3.28V v5 51.5868 / 4.99933 4912 ttn.v3 0.014km -56 11.5 868.3MHz, SF9BW125, 4/5CR
2026-05-07 03:10:55 9°C 56.875% 3.28V v5 51.5868 / 4.99933 4911 ttn.v3 0.014km -72 11.2 867.1MHz, SF9BW125, 4/5CR
1.267km -111 -1.75 867.1MHz, SF9BW125, 4/5CR
2026-05-07 02:55:27 9.25°C 68.875% 3.28V v5 51.5868 / 4.99933 4910 ttn.v3 0.014km -57 13.2 868.1MHz, SF9BW125, 4/5CR
2026-05-07 02:40:00 9.5°C 73.6875% 3.28V v5 51.5868 / 4.99933 4909 ttn.v3 0.014km -72 11.5 867.9MHz, SF9BW125, 4/5CR
1.267km -114 -8.75 867.9MHz, SF9BW125, 4/5CR
- -125 -12.75 867.9MHz, SF9BW125, 4/5CR
2026-05-07 02:24:32 9.75°C 57.8125% 3.28V v5 51.5868 / 4.99933 4908 ttn.v3 0.014km -56 10 868.5MHz, SF9BW125, 4/5CR
1.267km -113 -8.75 868.5MHz, SF9BW125, 4/5CR
2026-05-07 02:09:05 10.0625°C 63.5625% 3.28V v5 51.5868 / 4.99933 4907 ttn.v3 0.014km -71 12 867.7MHz, SF9BW125, 4/5CR
1.267km -111 -0.75 867.7MHz, SF9BW125, 4/5CR
- -122 -10.25 867.7MHz, SF9BW125, 4/5CR
2026-05-07 01:53:37 10.25°C 72.25% 3.28V v5 51.5868 / 4.99933 4906 ttn.v3 0.014km -56 11.8 868.3MHz, SF9BW125, 4/5CR
2026-05-07 01:38:09 10.3125°C 86.375% 3.28V v5 51.5868 / 4.99933 4905 ttn.v3 0.014km -72 10 867.5MHz, SF9BW125, 4/5CR
2026-05-07 01:22:41 10.375°C 102.75% 3.28V v5 51.5868 / 4.99933 4904 ttn.v3 0.014km -57 12.8 868.1MHz, SF9BW125, 4/5CR
1.267km -113 -10.75 868.1MHz, SF9BW125, 4/5CR
2026-05-07 01:07:14 10.4375°C -2.6875% 3.28V v5 51.5868 / 4.99933 4903 ttn.v3 0.014km -71 12 867.3MHz, SF9BW125, 4/5CR
1.267km -113 -2.75 867.3MHz, SF9BW125, 4/5CR
2026-05-07 00:51:46 10.4375°C 5.375% 3.28V v5 51.5868 / 4.99933 4902 ttn.v3 0.014km -57 9.8 868.5MHz, SF9BW125, 4/5CR
1.267km -111 -9.5 868.5MHz, SF9BW125, 4/5CR
2026-05-07 00:36:18 10.5°C 101.75% 3.28V v5 51.5868 / 4.99933 4901 ttn.v3 0.014km -72 11.8 867.1MHz, SF9BW125, 4/5CR
2026-05-07 00:20:50 10.5°C 118.312% 3.28V v5 51.5868 / 4.99933 4900 ttn.v3 0.014km -56 12 868.3MHz, SF9BW125, 4/5CR
2026-05-07 00:05:23 10.5625°C 19.8125% 3.28V v5 51.5868 / 4.99933 4899 ttn.v3 0.014km -72 11.8 867.9MHz, SF9BW125, 4/5CR
1.267km -116 -5 867.9MHz, SF9BW125, 4/5CR
2026-05-06 23:49:55 10.5625°C 21.375% 3.28V v5 51.5868 / 4.99933 4898 ttn.v3 0.014km -57 13 868.1MHz, SF9BW125, 4/5CR
2026-05-06 23:34:27 10.625°C 55% 3.28V v5 51.5868 / 4.99933 4897 ttn.v3 0.014km -71 11.8 867.7MHz, SF9BW125, 4/5CR
1.267km -113 -2.25 867.7MHz, SF9BW125, 4/5CR
- -121 -12.5 867.7MHz, SF9BW125, 4/5CR
2026-05-06 23:20:12 10.625°C 20.9375% 3.28V v5 51.5868 / 4.99933 4896 ttn.v3 0.014km -56 7.5 868.5MHz, SF12BW125, 4/5CR
1.267km -109 -10 868.5MHz, SF12BW125, 4/5CR
2026-05-06 23:03:36 10.625°C 24.625% 3.28V v5 0.00012207 / 0.0015564 4895 ttn.v3 5755.375km -71 10.2 867.5MHz, SF9BW125, 4/5CR
5756.106km -111 -2.75 867.5MHz, SF9BW125, 4/5CR
2026-05-06 22:48:08 10.625°C 83.0625% 3.28V v5 0.00012207 / 0.0015564 4894 ttn.v3 5755.375km -56 12.8 868.3MHz, SF9BW125, 4/5CR
2026-05-06 22:32:40 10.75°C 86.8125% 3.28V v5 0.00012207 / 0.0015564 4893 ttn.v3 5755.375km -71 12 867.3MHz, SF9BW125, 4/5CR
5756.106km -113 -0.5 867.3MHz, SF9BW125, 4/5CR
2026-05-06 22:17:12 10.75°C 115.25% 3.28V v5 0.00012207 / 0.0015564 4892 ttn.v3 5755.375km -57 12.5 868.1MHz, SF9BW125, 4/5CR
2026-05-06 22:01:44 10.8125°C 14.25% 3.28V v5 0.00012207 / 0.0015564 4891 ttn.v3 5755.375km -72 11.2 867.1MHz, SF9BW125, 4/5CR
5756.106km -114 -0.5 867.1MHz, SF9BW125, 4/5CR
- -118 -8.5 867.1MHz, SF9BW125, 4/5CR
2026-05-06 21:46:17 10.875°C 4.4375% 3.28V v5 0.00012207 / 0.0015564 4890 ttn.v3 5755.375km -56 10.2 868.5MHz, SF9BW125, 4/5CR
2026-05-06 21:30:49 10.875°C 113.375% 3.28V v5 0.00012207 / 0.0015564 4889 ttn.v3 5755.375km -71 12 867.9MHz, SF9BW125, 4/5CR
5756.106km -115 -5 867.9MHz, SF9BW125, 4/5CR
- -124 -10.75 867.9MHz, SF9BW125, 4/5CR
2026-05-06 21:15:21 11°C 20.375% 3.28V v5 0.00012207 / 0.0015564 4888 ttn.v3 5755.375km -56 12 868.3MHz, SF9BW125, 4/5CR
2026-05-06 20:59:53 11.0625°C 89.125% 3.28V v5 0.00012207 / 0.0015564 4887 ttn.v3 5755.375km -71 12.5 867.7MHz, SF9BW125, 4/5CR
5756.106km -110 -4.5 867.7MHz, SF9BW125, 4/5CR
- -122 -14.75 867.7MHz, SF9BW125, 4/5CR
2026-05-06 20:44:25 11.1875°C 91.25% 3.28V v5 0.00012207 / 0.0015564 4886 ttn.v3 5755.375km -57 11.8 868.1MHz, SF9BW125, 4/5CR
2026-05-06 20:28:57 11.25°C 88.875% 3.28V v5 0.00012207 / 0.0015564 4885 ttn.v3 5755.375km -71 10.2 867.5MHz, SF9BW125, 4/5CR
2026-05-06 20:13:29 11.375°C 93.875% 3.28V v5 0.00012207 / 0.0015564 4884 ttn.v3 5755.375km -56 10.5 868.5MHz, SF9BW125, 4/5CR
2026-05-06 19:58:01 11.4375°C 96% 3.28V v5 0.00012207 / 0.0015564 4883 ttn.v3 5755.375km -71 13 867.3MHz, SF9BW125, 4/5CR
5756.106km -111 -3.75 867.3MHz, SF9BW125, 4/5CR
2026-05-06 19:42:33 11.5625°C 91.5625% 3.28V v5 0.00012207 / 0.0015564 4882 ttn.v3 5755.375km -56 12 868.3MHz, SF9BW125, 4/5CR
2026-05-06 19:27:05 11.625°C 98.875% 3.28V v5 0.00012207 / 0.0015564 4881 ttn.v3 5755.375km -72 11.5 867.1MHz, SF9BW125, 4/5CR
5756.106km -113 -0.5 867.1MHz, SF9BW125, 4/5CR
2026-05-06 19:11:37 11.625°C 94.6875% 3.28V v5 0.00012207 / 0.0015564 4880 ttn.v3 5755.375km -57 12.2 868.1MHz, SF9BW125, 4/5CR
5756.106km -109 -7.5 868.1MHz, SF9BW125, 4/5CR
2026-05-06 18:56:09 11.75°C 95.0625% 3.28V v5 0.00012207 / 0.0015564 4879 ttn.v3 5755.375km -71 12 867.9MHz, SF9BW125, 4/5CR
5756.106km -116 -3.75 867.9MHz, SF9BW125, 4/5CR
2026-05-06 18:40:41 11.625°C 89.4375% 3.28V v5 0.00012207 / 0.0015564 4878 ttn.v3 5755.375km -56 10.2 868.5MHz, SF9BW125, 4/5CR
5756.106km -102 -11.75 868.5MHz, SF9BW125, 4/5CR
2026-05-06 18:25:13 11.6875°C 89.6875% 3.28V v5 0.00012207 / 0.0015564 4877 ttn.v3 5755.375km -71 12.2 867.7MHz, SF9BW125, 4/5CR
5756.106km -115 -6 867.7MHz, SF9BW125, 4/5CR
- -120 -9.5 867.7MHz, SF9BW125, 4/5CR
2026-05-06 18:09:44 11.75°C 93.9375% 3.28V v5 0.00012207 / 0.0015564 4876 ttn.v3 5755.375km -56 12 868.3MHz, SF9BW125, 4/5CR
5756.106km -110 -8.5 868.3MHz, SF9BW125, 4/5CR
2026-05-06 17:54:16 11.875°C 96.5% 3.28V v5 0.00012207 / 0.0015564 4875 ttn.v3 5755.375km -72 9.8 867.5MHz, SF9BW125, 4/5CR
2026-05-06 17:38:48 12°C 112% 3.28V v5 0.00012207 / 0.0015564 4874 ttn.v3 5755.375km -57 12.8 868.1MHz, SF9BW125, 4/5CR
2026-05-06 17:23:20 12.0625°C 5.25% 3.28V v5 0.00012207 / 0.0015564 4873 ttn.v3 5755.375km -71 11.8 867.3MHz, SF9BW125, 4/5CR
5756.106km -111 -3.25 867.3MHz, SF9BW125, 4/5CR
2026-05-06 17:07:52 12.25°C 14% 3.28V v5 0.00012207 / 0.0015564 4872 ttn.v3 5755.375km -56 10.2 868.5MHz, SF9BW125, 4/5CR
2026-05-06 16:52:24 12.1875°C 12.875% 3.28V v5 0.00012207 / 0.0015564 4871 ttn.v3 5755.375km -73 11.2 867.1MHz, SF9BW125, 4/5CR
5756.106km -113 -2 867.1MHz, SF9BW125, 4/5CR
2026-05-06 16:36:55 12.1875°C 15.3125% 3.28V v5 0.00012207 / 0.0015564 4870 ttn.v3 5755.375km -57 12.2 868.3MHz, SF9BW125, 4/5CR
2026-05-06 16:21:27 12.375°C 36.0625% 3.28V v5 0.00012207 / 0.0015564 4869 ttn.v3 5755.375km -71 11.8 867.9MHz, SF9BW125, 4/5CR
5756.106km -115 0.25 867.9MHz, SF9BW125, 4/5CR
2026-05-06 16:05:59 12.5625°C 58.8125% 3.28V v5 0.00012207 / 0.0015564 4868 ttn.v3 5755.375km -57 12.8 868.1MHz, SF9BW125, 4/5CR
2026-05-06 15:50:30 13.125°C 65.25% 3.28V v5 0.00012207 / 0.0015564 4867 ttn.v3 5755.375km -71 12 867.7MHz, SF9BW125, 4/5CR
5756.106km -116 -6.25 867.7MHz, SF9BW125, 4/5CR
2026-05-06 15:35:02 13.5°C 83.9375% 3.28V v5 0.00012207 / 0.0015564 4866 ttn.v3 5755.375km -57 10 868.5MHz, SF9BW125, 4/5CR
2026-05-06 15:19:33 13.6875°C 85.1875% 3.28V v5 0.00012207 / 0.0015564 4865 ttn.v3 5755.375km -72 9.5 867.5MHz, SF9BW125, 4/5CR
5756.106km -102 -12.25 867.5MHz, SF9BW125, 4/5CR
2026-05-06 15:04:05 14°C 77.75% 3.28V v5 0.00012207 / 0.0015564 4864 ttn.v3 5755.375km -56 11.8 868.3MHz, SF9BW125, 4/5CR
2026-05-06 14:48:36 14°C 44.625% 3.28V v5 0.00012207 / 0.0015564 4863 ttn.v3 5755.375km -72 12 867.3MHz, SF9BW125, 4/5CR
2026-05-06 14:33:07 13.875°C 57.375% 3.28V v5 0.00012207 / 0.0015564 4862 ttn.v3 5755.375km -57 12.5 868.1MHz, SF9BW125, 4/5CR
2026-05-06 14:17:39 14.0625°C 44.125% 3.28V v5 0.00012207 / 0.0015564 4861 ttn.v3 5755.375km -73 12.5 867.1MHz, SF9BW125, 4/5CR
5756.106km -116 -4.25 867.1MHz, SF9BW125, 4/5CR
2026-05-06 14:02:10 14.3125°C 48.5625% 3.28V v5 0.00012207 / 0.0015564 4860 ttn.v3 5755.375km -57 9.8 868.5MHz, SF9BW125, 4/5CR
2026-05-06 13:46:41 14.1875°C 61.1875% 3.28V v5 0.00012207 / 0.0015564 4859 ttn.v3 5755.375km -72 11.5 867.9MHz, SF9BW125, 4/5CR
5756.106km -115 -10.25 867.9MHz, SF9BW125, 4/5CR
- -120 -11.5 867.9MHz, SF9BW125, 4/5CR
2026-05-06 13:31:13 14.75°C 71.875% 3.28V v5 0.00012207 / 0.0015564 4858 ttn.v3 5755.375km -57 11 868.3MHz, SF9BW125, 4/5CR
5756.106km -111 -7.75 868.3MHz, SF9BW125, 4/5CR
2026-05-06 13:15:44 14.8125°C 87.125% 3.28V v5 0.00012207 / 0.0015564 4857 ttn.v3 5755.375km -72 12 867.7MHz, SF9BW125, 4/5CR
5756.106km -114 -2.25 867.7MHz, SF9BW125, 4/5CR
2026-05-06 13:00:15 14.8125°C 59.25% 3.28V v5 0.00012207 / 0.0015564 4856 ttn.v3 5755.375km -57 12.5 868.1MHz, SF9BW125, 4/5CR
2026-05-06 12:44:46 14.375°C 47.8125% 3.28V v5 0.00012207 / 0.0015564 4855 ttn.v3 5755.375km -73 9 867.5MHz, SF9BW125, 4/5CR
2026-05-06 12:29:18 13.9375°C 30.1875% 3.28V v5 0.00012207 / 0.0015564 4854 ttn.v3 5755.375km -57 9.8 868.5MHz, SF9BW125, 4/5CR
2026-05-06 12:13:49 13.6875°C 10.4375% 3.28V v5 0.00012207 / 0.0015564 4853 ttn.v3 5755.375km -72 11.5 867.3MHz, SF9BW125, 4/5CR
5756.106km -115 -8.75 867.3MHz, SF9BW125, 4/5CR
2026-05-06 11:58:21 13.3125°C 4.875% 3.28V v5 0.00012207 / 0.0015564 4852 ttn.v3 5755.375km -57 13 868.3MHz, SF9BW125, 4/5CR
2026-05-06 11:42:52 13.0625°C 93.375% 3.28V v5 0.00012207 / 0.0015564 4851 ttn.v3 5755.375km -73 12.5 867.1MHz, SF9BW125, 4/5CR
2026-05-06 11:27:24 12.625°C 90.5625% 3.28V v5 0.00012207 / 0.0015564 4850 ttn.v3 5755.375km -58 12.2 868.1MHz, SF9BW125, 4/5CR
2026-05-06 11:11:56 12.5°C 88.5625% 3.28V v5 0.00012207 / 0.0015564 4849 ttn.v3 5755.375km -72 13.5 867.9MHz, SF9BW125, 4/5CR
2026-05-06 10:56:28 12.5°C 10.6875% 3.28V v5 0.00012207 / 0.0015564 4848 ttn.v3 5755.375km -57 9.5 868.5MHz, SF9BW125, 4/5CR
2026-05-06 10:40:59 12.5°C 5% 3.28V v5 0.00012207 / 0.0015564 4847 ttn.v3 5755.375km -73 13.2 867.7MHz, SF9BW125, 4/5CR
2026-05-06 10:25:31 12.125°C 48.5% 3.28V v5 0.00012207 / 0.0015564 4846 ttn.v3 5755.375km -57 12.5 868.3MHz, SF9BW125, 4/5CR
2026-05-06 10:10:03 11.6875°C 69.5% 3.28V v5 0.00012207 / 0.0015564 4845 ttn.v3 5755.375km -73 9.8 867.5MHz, SF9BW125, 4/5CR
2026-05-06 09:54:35 11.1875°C 54.375% 3.28V v5 0.00012207 / 0.0015564 4844 ttn.v3 5755.375km -59 13.2 868.1MHz, SF9BW125, 4/5CR
2026-05-06 09:39:07 10.8125°C 43.5% 3.28V v5 0.00012207 / 0.0015564 4843 ttn.v3 5755.375km -73 12.5 867.3MHz, SF9BW125, 4/5CR
5756.106km -113 -1.5 867.3MHz, SF9BW125, 4/5CR
- -117 -10.5 867.3MHz, SF9BW125, 4/5CR
2026-05-06 09:23:39 10.4375°C 43.4375% 3.28V v5 0.00012207 / 0.0015564 4842 ttn.v3 5755.375km -58 10 868.5MHz, SF9BW125, 4/5CR
2026-05-06 09:08:12 10.3125°C 43.4375% 3.28V v5 0.00012207 / 0.0015564 4841 ttn.v3 5755.375km -74 12.5 867.1MHz, SF9BW125, 4/5CR
5756.106km -114 -7.25 867.1MHz, SF9BW125, 4/5CR
- -120 -7.75 867.1MHz, SF9BW125, 4/5CR
2026-05-06 08:52:44 10.125°C 43.4375% 3.28V v5 0.00012207 / 0.0015564 4840 ttn.v3 5755.375km -58 12 868.3MHz, SF9BW125, 4/5CR
2026-05-06 08:37:16 9.9375°C 43.375% 3.28V v5 0.00012207 / 0.0015564 4839 ttn.v3 5755.375km -73 11.8 867.9MHz, SF9BW125, 4/5CR
5756.106km -115 -9 867.9MHz, SF9BW125, 4/5CR
- -121 -10.25 867.9MHz, SF9BW125, 4/5CR
2026-05-06 08:21:49 9.6875°C 43.375% 3.28V v5 0.00012207 / 0.0015564 4838 ttn.v3 5755.375km -59 13.2 868.1MHz, SF9BW125, 4/5CR
2026-05-06 08:06:21 9.375°C 43.3125% 3.28V v5 0.00012207 / 0.0015564 4837 ttn.v3 5755.375km -73 10 867.7MHz, SF9BW125, 4/5CR
2026-05-06 07:50:54 9.25°C 43.3125% 3.28V v5 0.00012207 / 0.0015564 4836 ttn.v3 5755.375km -58 10 868.5MHz, SF9BW125, 4/5CR
2026-05-06 07:35:26 9.0625°C 43.3125% 3.28V v5 0.00012207 / 0.0015564 4835 ttn.v3 5755.375km -73 9.2 867.5MHz, SF9BW125, 4/5CR
5756.106km -110 -6.5 867.5MHz, SF9BW125, 4/5CR
2026-05-06 07:19:59 9°C 43.3125% 3.28V v5 0.00012207 / 0.0015564 4834 ttn.v3 5755.375km -58 12 868.3MHz, SF9BW125, 4/5CR
5756.106km -107 -8.5 868.3MHz, SF9BW125, 4/5CR
2026-05-06 07:04:31 8.9375°C 43.3125% 3.28V v5 0.00012207 / 0.0015564 4833 ttn.v3 5755.375km -73 12.5 867.3MHz, SF9BW125, 4/5CR
2026-05-06 06:49:04 8.875°C 43.25% 3.28V v5 0.00012207 / 0.0015564 4832 ttn.v3 5755.375km -58 13 868.1MHz, SF9BW125, 4/5CR
5756.106km -115 -3.75 868.1MHz, SF9BW125, 4/5CR
2026-05-06 06:33:36 8.8125°C 43.25% 3.28V v5 0.00012207 / 0.0015564 4831 ttn.v3 5755.375km -74 12.2 867.1MHz, SF9BW125, 4/5CR
- -118 -8 867.1MHz, SF9BW125, 4/5CR
2026-05-06 06:18:09 8.8125°C 43.25% 3.28V v5 0.00012207 / 0.0015564 4830 ttn.v3 5755.375km -57 10 868.5MHz, SF9BW125, 4/5CR
2026-05-06 06:02:41 8.8125°C 43.25% 3.28V v5 0.00012207 / 0.0015564 4829 ttn.v3 5755.375km -73 13.2 867.9MHz, SF9BW125, 4/5CR
5756.106km -117 -6.25 867.9MHz, SF9BW125, 4/5CR
- -121 -6.75 867.9MHz, SF9BW125, 4/5CR
2026-05-06 05:47:14 8.75°C 43.25% 3.28V v5 0.00012207 / 0.0015564 4828 ttn.v3 5755.375km -57 12.8 868.3MHz, SF9BW125, 4/5CR
5756.106km -108 -12 868.3MHz, SF9BW125, 4/5CR
2026-05-06 05:31:46 8.8125°C 43.25% 3.28V v5 0.00012207 / 0.0015564 4827 ttn.v3 5755.375km -73 12.8 867.7MHz, SF9BW125, 4/5CR
5756.106km -115 -7.25 867.7MHz, SF9BW125, 4/5CR
- -117 -9 867.7MHz, SF9BW125, 4/5CR
2026-05-06 05:16:19 8.875°C 43.25% 3.28V v5 0.00012207 / 0.0015564 4826 ttn.v3 5755.375km -58 12.2 868.1MHz, SF9BW125, 4/5CR
2026-05-06 05:00:51 8.9375°C 43.3125% 3.28V v5 0.00012207 / 0.0015564 4825 ttn.v3 5755.375km -72 9.2 867.5MHz, SF9BW125, 4/5CR
5756.106km -110 -3 867.5MHz, SF9BW125, 4/5CR
2026-05-06 04:45:24 9.0625°C 43.3125% 3.28V v5 0.00012207 / 0.0015564 4824 ttn.v3 5755.375km -58 9.2 868.5MHz, SF9BW125, 4/5CR
2026-05-06 04:29:56 9.1875°C 43.3125% 3.28V v5 0.00012207 / 0.0015564 4823 ttn.v3 5755.375km -72 11.2 867.3MHz, SF9BW125, 4/5CR
5756.106km -111 -0.75 867.3MHz, SF9BW125, 4/5CR
2026-05-06 04:14:29 9.25°C 43.3125% 3.28V v5 0.00012207 / 0.0015564 4822 ttn.v3 5755.375km -57 12.8 868.3MHz, SF9BW125, 4/5CR
2026-05-06 03:59:01 9.4375°C 43.3125% 3.28V v5 0.00012207 / 0.0015564 4821 ttn.v3 5755.375km -73 12 867.1MHz, SF9BW125, 4/5CR
5756.106km -102 -0.75 867.1MHz, SF9BW125, 4/5CR
2026-05-06 03:43:34 9.625°C 43.375% 3.28V v5 0.00012207 / 0.0015564 4820 ttn.v3 5755.375km -58 12.2 868.1MHz, SF9BW125, 4/5CR
2026-05-06 03:28:06 9.6875°C 43.375% 3.28V v5 0.00012207 / 0.0015564 4819 ttn.v3 5755.375km -72 12 867.9MHz, SF9BW125, 4/5CR
5756.106km -114 -2.5 867.9MHz, SF9BW125, 4/5CR
- -120 -8 867.9MHz, SF9BW125, 4/5CR
2026-05-06 03:12:38 9.6875°C 43.375% 3.28V v5 0.00012207 / 0.0015564 4818 ttn.v3 5755.375km -57 8 868.5MHz, SF9BW125, 4/5CR
5756.106km -111 -6.75 868.5MHz, SF9BW125, 4/5CR
2026-05-06 02:57:11 9.6875°C 43.375% 3.28V v5 0.00012207 / 0.0015564 4817 ttn.v3 5755.375km -72 12 867.7MHz, SF9BW125, 4/5CR
- -118 -5.5 867.7MHz, SF9BW125, 4/5CR
2026-05-06 02:41:43 9.6875°C 43.375% 3.28V v5 0.00012207 / 0.0015564 4816 ttn.v3 5755.375km -57 12.8 868.3MHz, SF9BW125, 4/5CR
2026-05-06 02:26:15 9.75°C 49.75% 3.28V v5 0.00012207 / 0.0015564 4815 ttn.v3 5755.375km -72 9.2 867.5MHz, SF9BW125, 4/5CR
2026-05-06 02:10:48 9.75°C 43.375% 3.28V v5 0.00012207 / 0.0015564 4814 ttn.v3 5755.375km -58 12 868.1MHz, SF9BW125, 4/5CR
5756.106km -111 -5 868.1MHz, SF9BW125, 4/5CR
2026-05-06 01:55:20 9.875°C 58.5% 3.28V v5 0.00012207 / 0.0015564 4813 ttn.v3 5755.375km -73 13.8 867.3MHz, SF9BW125, 4/5CR
5756.106km -109 -4.5 867.3MHz, SF9BW125, 4/5CR
2026-05-06 01:39:52 9.875°C 65.5625% 3.28V v5 0.00012207 / 0.0015564 4812 ttn.v3 5755.375km -57 9.5 868.5MHz, SF9BW125, 4/5CR
2026-05-06 01:24:25 10°C 71.5625% 3.28V v5 0.00012207 / 0.0015564 4811 ttn.v3 5755.375km -73 12.8 867.1MHz, SF9BW125, 4/5CR
5756.106km -112 -2.25 867.1MHz, SF9BW125, 4/5CR
- -118 -5 867.1MHz, SF9BW125, 4/5CR
2026-05-06 01:08:57 10.0625°C 81.4375% 3.28V v5 0.00012207 / 0.0015564 4810 ttn.v3 5755.375km -57 12.5 868.3MHz, SF9BW125, 4/5CR
2026-05-06 00:53:29 10.125°C 79.3125% 3.28V v5 0.00012207 / 0.0015564 4809 ttn.v3 5755.375km -72 11.5 867.9MHz, SF9BW125, 4/5CR
5756.106km -113 -4.25 867.9MHz, SF9BW125, 4/5CR
- -118 -6 867.9MHz, SF9BW125, 4/5CR
2026-05-06 00:38:01 10.3125°C 86.75% 3.28V v5 0.00012207 / 0.0015564 4808 ttn.v3 5755.375km -58 14 868.1MHz, SF9BW125, 4/5CR
2026-05-06 00:22:33 10.375°C 90.9375% 3.28V v5 0.00012207 / 0.0015564 4807 ttn.v3 5755.375km -72 12.2 867.7MHz, SF9BW125, 4/5CR
- -116 -5.5 867.7MHz, SF9BW125, 4/5CR
5756.106km -115 -7.25 867.7MHz, SF9BW125, 4/5CR
2026-05-06 00:07:06 10.5°C 101.25% 3.28V v5 0.00012207 / 0.0015564 4806 ttn.v3 5755.375km -57 7.8 868.5MHz, SF9BW125, 4/5CR
2026-05-05 23:36:10 10.625°C 90.5% 3.28V v5 0.00012207 / 0.0015564 4804 ttn.v3 5755.375km -57 12.5 868.3MHz, SF9BW125, 4/5CR
2026-05-05 23:20:42 10.75°C 78.4375% 3.28V v5 0.00012207 / 0.0015564 4803 ttn.v3 5755.375km -72 12 867.3MHz, SF9BW125, 4/5CR
5756.106km -109 -5 867.3MHz, SF9BW125, 4/5CR
2026-05-05 23:05:14 10.875°C 86.8125% 3.28V v5 0.00012207 / 0.0015564 4802 ttn.v3 5755.375km -58 12.2 868.1MHz, SF9BW125, 4/5CR
2026-05-05 22:49:46 10.9375°C 79.0625% 3.28V v5 0.00012207 / 0.0015564 4801 ttn.v3 5755.375km -73 12.5 867.1MHz, SF9BW125, 4/5CR
5756.106km -110 -4.25 867.1MHz, SF9BW125, 4/5CR
- -118 -10 867.1MHz, SF9BW125, 4/5CR
2026-05-05 22:36:28 11°C 85.75% 3.28V v5 0.00012207 / 0.0015564 4800 ttn.v3 5755.375km -60 7 868.5MHz, SF12BW125, 4/5CR
2026-05-05 22:18:58 11.0625°C 89.6875% 3.28V v5 0.00012207 / 0.0015564 4799 ttn.v3 5755.375km -73 12.8 867.9MHz, SF9BW125, 4/5CR
2026-05-05 22:03:30 11.125°C 78.9375% 3.28V v5 0.00012207 / 0.0015564 4798 ttn.v3 5755.375km -57 12.8 868.3MHz, SF9BW125, 4/5CR
2026-05-05 21:48:03 11.3125°C 94.3125% 3.28V v5 0.00012207 / 0.0015564 4797 ttn.v3 5755.375km -72 12.2 867.7MHz, SF9BW125, 4/5CR
- -118 -10.25 867.7MHz, SF9BW125, 4/5CR
2026-05-05 21:32:34 11.5625°C 87.3125% 3.28V v5 0.00012207 / 0.0015564 4796 ttn.v3 5755.375km -58 12.2 868.1MHz, SF9BW125, 4/5CR
2026-05-05 21:17:06 11.8125°C 88.375% 3.28V v5 0.00012207 / 0.0015564 4795 ttn.v3 5755.375km -73 9 867.5MHz, SF9BW125, 4/5CR
2026-05-05 21:01:38 11.9375°C 60.375% 3.28V v5 0.00012207 / 0.0015564 4794 ttn.v3 5755.375km -58 10 868.5MHz, SF9BW125, 4/5CR
5756.106km -113 -7.25 868.5MHz, SF9BW125, 4/5CR
2026-05-05 20:46:10 12.1875°C 43.625% 3.28V v5 0.00012207 / 0.0015564 4793 ttn.v3 5755.375km -72 11.5 867.3MHz, SF9BW125, 4/5CR
5756.106km -113 -4.5 867.3MHz, SF9BW125, 4/5CR
- -117 -9.75 867.3MHz, SF9BW125, 4/5CR
2026-05-05 20:30:42 12.3125°C 43.625% 3.28V v5 0.00012207 / 0.0015564 4792 ttn.v3 5755.375km -57 12.2 868.3MHz, SF9BW125, 4/5CR
2026-05-05 20:15:13 12.375°C 43.625% 3.28V v5 0.00012207 / 0.0015564 4791 ttn.v3 5755.375km -73 12.5 867.1MHz, SF9BW125, 4/5CR
5756.106km -116 -2.25 867.1MHz, SF9BW125, 4/5CR
- -117 -7.25 867.1MHz, SF9BW125, 4/5CR
2026-05-05 19:59:45 12.5°C 54.25% 3.28V v5 0.00012207 / 0.0015564 4790 ttn.v3 5755.375km -57 12.5 868.1MHz, SF9BW125, 4/5CR
5756.106km -113 -6.5 868.1MHz, SF9BW125, 4/5CR
2026-05-05 19:44:17 12.625°C 60.3125% 3.28V v5 0.00012207 / 0.0015564 4789 ttn.v3 5755.375km -72 11.8 867.9MHz, SF9BW125, 4/5CR
- -118 -4 867.9MHz, SF9BW125, 4/5CR
5756.106km -114 -4 867.9MHz, SF9BW125, 4/5CR
2026-05-05 19:28:49 12.8125°C 94.9375% 3.28V v5 0.00012207 / 0.0015564 4788 ttn.v3 5755.375km -57 10.5 868.5MHz, SF9BW125, 4/5CR
2026-05-05 19:13:20 12.75°C 57.5% 3.28V v5 0.00012207 / 0.0015564 4787 ttn.v3 5755.375km -72 11.8 867.7MHz, SF9BW125, 4/5CR
5756.106km -115 -6 867.7MHz, SF9BW125, 4/5CR
2026-05-05 18:57:52 12.625°C 55.1875% 3.28V v5 0.00012207 / 0.0015564 4786 ttn.v3 5755.375km -57 12.8 868.3MHz, SF9BW125, 4/5CR
2026-05-05 18:42:24 12.5625°C 57.875% 3.28V v5 0.00012207 / 0.0015564 4785 ttn.v3 5755.375km -72 9 867.5MHz, SF9BW125, 4/5CR
5756.106km -113 -13 867.5MHz, SF9BW125, 4/5CR
- -115 -13.25 867.5MHz, SF9BW125, 4/5CR
2026-05-05 18:26:55 12.5625°C 72.4375% 3.28V v5 0.00012207 / 0.0015564 4784 ttn.v3 5755.375km -57 12.5 868.1MHz, SF9BW125, 4/5CR
2026-05-05 18:11:27 12.5625°C 56.75% 3.28V v5 0.00012207 / 0.0015564 4783 ttn.v3 5755.375km -72 11.2 867.3MHz, SF9BW125, 4/5CR
2026-05-05 17:55:59 12.5625°C 51.25% 3.28V v5 0.00012207 / 0.0015564 4782 ttn.v3 5755.375km -57 10 868.5MHz, SF9BW125, 4/5CR
5756.106km -109 -9.25 868.5MHz, SF9BW125, 4/5CR
2026-05-05 17:40:30 12.6875°C 43.6875% 3.28V v5 0.00012207 / 0.0015564 4781 ttn.v3 5755.375km -73 12.8 867.1MHz, SF9BW125, 4/5CR
2026-05-05 17:25:02 12.625°C 43.6875% 3.28V v5 0.00012207 / 0.0015564 4780 ttn.v3 5755.375km -58 12 868.3MHz, SF9BW125, 4/5CR
2026-05-05 17:09:34 12.125°C 43.625% 3.28V v5 0.00012207 / 0.0015564 4779 ttn.v3 5755.375km -72 13.5 867.9MHz, SF9BW125, 4/5CR
5756.106km -113 -1.5 867.9MHz, SF9BW125, 4/5CR
- -118 -7.5 867.9MHz, SF9BW125, 4/5CR
2026-05-05 16:54:06 11.5625°C 43.5625% 3.28V v5 0.00012207 / 0.0015564 4778 ttn.v3 5755.375km -58 12.2 868.1MHz, SF9BW125, 4/5CR
5756.106km -113 -10.25 868.1MHz, SF9BW125, 4/5CR
2026-05-05 16:38:38 11.5°C 43.5625% 3.28V v5 0.00012207 / 0.0015564 4777 ttn.v3 5755.375km -72 12.2 867.7MHz, SF9BW125, 4/5CR
- -115 -5.25 867.7MHz, SF9BW125, 4/5CR
5756.106km -114 -6.5 867.7MHz, SF9BW125, 4/5CR
2026-05-05 16:23:10 11.5625°C 43.5625% 3.28V v5 0.00012207 / 0.0015564 4776 ttn.v3 5755.375km -57 10.2 868.5MHz, SF9BW125, 4/5CR
5756.106km -114 -9.75 868.5MHz, SF9BW125, 4/5CR
2026-05-05 16:07:42 11.625°C 43.5625% 3.28V v5 0.00012207 / 0.0015564 4775 ttn.v3 5755.375km -72 9 867.5MHz, SF9BW125, 4/5CR
- -115 -14.75 867.5MHz, SF9BW125, 4/5CR
2026-05-05 15:52:14 11.75°C 43.5625% 3.28V v5 0.00012207 / 0.0015564 4774 ttn.v3 5755.375km -57 12.8 868.3MHz, SF9BW125, 4/5CR
5756.106km -110 -8.5 868.3MHz, SF9BW125, 4/5CR
2026-05-05 15:36:46 11.75°C 43.5625% 3.28V v5 0.00012207 / 0.0015564 4773 ttn.v3 5755.375km -73 12.8 867.3MHz, SF9BW125, 4/5CR
5756.106km -114 -8.5 867.3MHz, SF9BW125, 4/5CR
2026-05-05 15:21:18 11.6875°C 43.5625% 3.28V v5 0.00012207 / 0.0015564 4772 ttn.v3 5755.375km -58 12 868.1MHz, SF9BW125, 4/5CR
5756.106km -114 -6 868.1MHz, SF9BW125, 4/5CR
2026-05-05 15:05:50 11.6875°C 43.5625% 3.28V v5 0.00012207 / 0.0015564 4771 ttn.v3 5755.375km -73 12.5 867.1MHz, SF9BW125, 4/5CR
5756.106km -116 -10 867.1MHz, SF9BW125, 4/5CR
2026-05-05 14:50:21 11.625°C 43.5625% 3.28V v5 0.00012207 / 0.0015564 4770 ttn.v3 5755.375km -57 10 868.5MHz, SF9BW125, 4/5CR

Message count: 200
Node count: 1

Messages per node

Number of messages in list aboveNodes
200

Statistics per gateway

GatewayNumber of messagesNumber of nodesNodes
2001 (5755.375km)
1121 (5756.106km)
351

Filter by dataset